createdAt,value
2023-04-30T00:01:52.747Z,14.39
2023-04-30T00:06:55.868Z,14.43
2023-04-30T00:11:58.980Z,14.36
2023-04-30T00:17:02.481Z,14.29
2023-04-30T00:22:06.332Z,14.32
2023-04-30T00:27:09.310Z,14.37
2023-04-30T00:32:12.560Z,14.37
2023-04-30T00:37:15.758Z,14.34
2023-04-30T00:42:18.758Z,14.29
2023-04-30T00:47:22.082Z,14.27
2023-04-30T00:52:25.532Z,14.25
2023-04-30T00:57:29.430Z,14.29
2023-04-30T01:02:32.658Z,14.25
2023-04-30T01:07:38.876Z,14.26
2023-04-30T01:13:04.396Z,14.25
2023-04-30T01:18:12.813Z,14.22
2023-04-30T01:23:37.183Z,14.19
2023-04-30T01:28:42.851Z,14.22
2023-04-30T01:33:46.046Z,14.21
2023-04-30T01:39:09.896Z,14.24
2023-04-30T01:44:41.308Z,14.21
2023-04-30T01:50:17.753Z,14.10
2023-04-30T01:55:24.858Z,14.05
2023-04-30T02:00:30.720Z,14.11
2023-04-30T02:05:34.537Z,14.12
2023-04-30T02:10:37.567Z,14.12
2023-04-30T02:15:40.646Z,14.09
2023-04-30T02:20:44.047Z,14.06
2023-04-30T02:25:48.040Z,14.02
2023-04-30T02:30:51.079Z,14.02
2023-04-30T02:35:55.355Z,14.01
2023-04-30T02:40:58.432Z,13.99
2023-04-30T02:46:01.772Z,13.97
2023-04-30T02:51:05.341Z,13.92
2023-04-30T02:56:08.452Z,13.91
2023-04-30T03:01:11.493Z,13.92
2023-04-30T03:06:14.809Z,13.92
2023-04-30T03:11:17.919Z,13.91
2023-04-30T03:16:21.997Z,13.90
2023-04-30T03:21:25.108Z,13.82
2023-04-30T03:26:29.028Z,13.81
2023-04-30T03:31:32.552Z,13.80
2023-04-30T03:36:36.091Z,13.88
2023-04-30T03:41:39.096Z,13.88
2023-04-30T03:46:44.615Z,13.80
2023-04-30T03:51:47.985Z,13.74
2023-04-30T03:56:51.429Z,13.69
2023-04-30T04:07:24.661Z,13.72
2023-04-30T04:12:27.658Z,13.77
2023-04-30T04:17:30.717Z,13.73
2023-04-30T04:22:35.782Z,13.71
2023-04-30T04:27:38.769Z,13.67
2023-04-30T04:32:48.518Z,13.66
2023-04-30T04:37:51.669Z,13.71
2023-04-30T04:42:55.898Z,13.71
2023-04-30T04:47:59.181Z,13.70
2023-04-30T04:53:03.672Z,13.61
2023-04-30T04:58:06.854Z,13.50
2023-04-30T05:03:10.490Z,13.38
2023-04-30T05:08:13.991Z,13.31
2023-04-30T05:13:17.794Z,13.30
2023-04-30T05:18:21.251Z,13.30
2023-04-30T05:23:24.328Z,13.20
2023-04-30T05:28:27.456Z,13.10
2023-04-30T05:33:30.652Z,13.04
2023-04-30T05:38:33.687Z,12.96
2023-04-30T05:43:36.652Z,12.87
2023-04-30T05:48:40.122Z,12.81
2023-04-30T05:53:43.463Z,12.81
2023-04-30T05:58:46.535Z,12.81
2023-04-30T06:03:49.565Z,12.75
2023-04-30T06:08:52.640Z,12.67
2023-04-30T06:13:56.129Z,12.65
2023-04-30T06:18:59.228Z,12.60
2023-04-30T06:24:02.401Z,12.49
2023-04-30T06:29:05.409Z,12.41
2023-04-30T06:34:08.800Z,12.33
2023-04-30T06:39:15.274Z,12.23
2023-04-30T06:44:19.206Z,12.19
2023-04-30T06:49:23.173Z,12.07
2023-04-30T06:54:27.864Z,12.00
2023-04-30T06:59:31.433Z,11.94
2023-04-30T07:04:34.489Z,11.91
2023-04-30T07:09:37.877Z,11.93
2023-04-30T07:14:41.044Z,11.97
2023-04-30T07:19:44.223Z,12.09
2023-04-30T07:24:47.321Z,12.19
2023-04-30T07:29:51.648Z,12.23
2023-04-30T07:34:54.682Z,12.30
2023-04-30T07:39:57.791Z,12.37
2023-04-30T07:45:01.197Z,12.44
2023-04-30T07:50:04.913Z,12.49
2023-04-30T07:55:08.574Z,12.49
2023-04-30T08:00:12.577Z,12.58
2023-04-30T08:05:15.629Z,12.73
2023-04-30T08:10:18.802Z,12.83
2023-04-30T08:15:24.223Z,12.96
2023-04-30T08:20:27.533Z,13.16
2023-04-30T08:25:31.852Z,13.35
2023-04-30T08:30:34.984Z,13.52
2023-04-30T08:35:38.074Z,13.65
2023-04-30T08:45:51.193Z,14.24
2023-04-30T08:50:55.411Z,14.41
2023-04-30T08:55:59.810Z,15.03
2023-04-30T09:01:07.563Z,15.43
2023-04-30T09:06:15.226Z,15.76
2023-04-30T09:11:26.793Z,15.62
2023-04-30T09:16:57.946Z,15.47
2023-04-30T09:22:21.762Z,15.46
2023-04-30T09:27:25.092Z,15.61
2023-04-30T09:32:28.356Z,15.75
2023-04-30T09:37:40.295Z,15.96
2023-04-30T09:43:00.256Z,16.16
2023-04-30T09:48:16.419Z,16.09
2023-04-30T09:53:21.309Z,16.03
2023-04-30T09:58:29.962Z,16.00
2023-04-30T10:03:33.934Z,16.24
2023-04-30T10:08:44.254Z,16.52
2023-04-30T10:13:57.980Z,16.66
2023-04-30T10:19:07.734Z,16.86
2023-04-30T10:24:13.167Z,16.76
2023-04-30T10:29:17.181Z,17.03
2023-04-30T10:34:32.133Z,17.37
2023-04-30T10:39:37.748Z,17.58
2023-04-30T10:44:41.015Z,17.79
2023-04-30T10:49:49.407Z,17.93
2023-04-30T10:54:52.394Z,18.26
2023-04-30T11:00:07.997Z,18.66
2023-04-30T11:05:12.268Z,18.78
2023-04-30T11:10:16.237Z,18.85
2023-04-30T11:15:24.808Z,19.02
2023-04-30T11:20:28.317Z,19.34
2023-04-30T11:25:48.656Z,19.61
2023-04-30T11:30:52.792Z,19.79
2023-04-30T11:35:58.001Z,19.88
2023-04-30T11:41:02.134Z,19.97
2023-04-30T11:46:10.623Z,20.07
2023-04-30T11:51:22.024Z,20.35
2023-04-30T11:56:25.814Z,20.42
2023-04-30T12:01:29.311Z,20.41
2023-04-30T12:06:33.178Z,20.66
2023-04-30T12:11:36.488Z,20.90
2023-04-30T12:16:45.553Z,21.14
2023-04-30T12:21:49.913Z,21.29
2023-04-30T12:26:54.167Z,21.41
2023-04-30T12:31:58.295Z,21.59
2023-04-30T12:37:02.334Z,21.77
2023-04-30T12:42:05.624Z,21.94
2023-04-30T12:47:10.154Z,22.09
2023-04-30T12:52:14.278Z,22.20
2023-04-30T12:57:17.572Z,22.24
2023-04-30T13:02:24.755Z,22.36
2023-04-30T13:07:38.330Z,22.39
2023-04-30T13:12:48.893Z,22.58
2023-04-30T13:17:54.591Z,22.73
2023-04-30T13:22:57.961Z,22.83
2023-04-30T13:28:01.013Z,22.86
2023-04-30T13:33:04.203Z,22.93
2023-04-30T13:38:07.357Z,22.96
2023-04-30T13:43:10.573Z,23.06
2023-04-30T13:48:13.953Z,23.05
2023-04-30T13:53:17.158Z,23.15
2023-04-30T13:58:20.787Z,23.31
2023-04-30T14:03:24.031Z,23.29
2023-04-30T14:08:27.136Z,23.19
2023-04-30T14:13:30.665Z,23.13
2023-04-30T14:18:33.969Z,23.05
2023-04-30T16:25:36.270Z,21.76
2023-04-30T16:30:40.429Z,20.97
2023-04-30T16:35:44.000Z,20.34
2023-04-30T16:40:48.121Z,19.71
2023-04-30T16:45:52.077Z,19.13
2023-04-30T16:50:55.396Z,18.72
2023-04-30T16:55:58.588Z,18.37
2023-04-30T17:01:02.239Z,17.98
2023-04-30T17:06:06.168Z,17.70
2023-04-30T17:11:09.412Z,17.43
2023-04-30T17:16:14.620Z,17.16
2023-04-30T17:25:32.200Z,16.79
2023-04-30T17:30:53.142Z,16.61
2023-04-30T17:35:56.422Z,16.45
2023-04-30T17:40:59.954Z,16.31
2023-04-30T17:46:03.654Z,16.27
2023-04-30T17:51:08.074Z,16.32
2023-04-30T17:56:12.368Z,16.46
2023-04-30T18:01:15.494Z,16.63
2023-04-30T18:06:18.540Z,16.43
2023-04-30T18:11:21.904Z,16.13
2023-04-30T18:16:25.026Z,15.85
2023-04-30T18:21:28.222Z,15.61
2023-04-30T18:26:31.796Z,15.45
2023-04-30T18:31:36.878Z,15.32
2023-04-30T18:36:43.106Z,15.12
2023-04-30T18:41:46.312Z,14.97
2023-04-30T18:46:49.305Z,14.88
2023-04-30T18:51:54.865Z,14.76
2023-04-30T18:56:58.564Z,14.67
2023-04-30T19:02:01.637Z,14.59
2023-04-30T19:07:04.971Z,14.47
2023-04-30T19:12:10.378Z,14.35
2023-04-30T19:17:21.485Z,14.25
2023-04-30T19:22:24.897Z,14.23
2023-04-30T19:27:28.199Z,14.11
2023-04-30T19:32:31.589Z,14.01
2023-04-30T19:37:34.789Z,14.12
2023-04-30T19:42:39.766Z,13.99
2023-04-30T19:47:42.740Z,13.85
2023-04-30T19:52:45.776Z,13.71
2023-04-30T19:57:48.764Z,13.59
2023-04-30T20:02:52.177Z,13.49
2023-04-30T20:07:55.398Z,13.40
2023-04-30T20:12:58.530Z,13.24
2023-04-30T20:18:02.008Z,13.12
2023-04-30T20:23:16.324Z,13.06
2023-04-30T20:28:19.802Z,13.06
2023-04-30T20:33:23.181Z,13.17
2023-04-30T20:38:26.423Z,13.11
2023-04-30T20:43:29.649Z,13.06
2023-04-30T20:48:33.570Z,12.99
2023-04-30T20:53:36.713Z,12.93
2023-04-30T20:58:39.778Z,12.83
2023-04-30T21:03:42.948Z,12.74
2023-04-30T21:08:46.525Z,12.65
2023-04-30T21:13:51.381Z,12.53
2023-04-30T21:18:54.618Z,12.38
2023-04-30T21:24:01.113Z,12.24
2023-04-30T21:29:04.428Z,12.30
2023-04-30T21:34:07.560Z,12.24
2023-04-30T21:39:10.520Z,12.06
2023-04-30T21:44:13.630Z,11.87
2023-04-30T21:49:17.011Z,11.71
2023-04-30T21:54:20.079Z,11.60
2023-04-30T21:59:23.049Z,11.47
2023-04-30T22:04:26.721Z,11.35
2023-04-30T22:09:31.903Z,11.24
2023-04-30T22:14:35.318Z,11.12
2023-04-30T22:20:01.305Z,11.04
2023-04-30T22:25:04.892Z,10.92
2023-04-30T22:30:09.998Z,10.86
2023-04-30T22:35:16.334Z,10.78
2023-04-30T22:45:20.808Z,10.62
2023-04-30T22:50:24.194Z,10.51
2023-04-30T22:55:28.119Z,10.44
2023-04-30T23:00:31.779Z,10.37
2023-04-30T23:05:35.095Z,10.29
2023-04-30T23:10:38.182Z,10.22
2023-04-30T23:15:43.341Z,10.18
2023-04-30T23:20:47.591Z,10.14
2023-04-30T23:25:51.350Z,10.09
2023-04-30T23:30:55.323Z,10.04
2023-04-30T23:35:58.450Z,9.95
2023-04-30T23:41:03.416Z,9.88
2023-04-30T23:46:06.632Z,9.80
2023-04-30T23:51:10.017Z,9.72
2023-04-30T23:56:13.332Z,9.65
